createdAt,value
2017-01-15T00:00:24.824Z,0
2017-01-15T00:01:24.795Z,0
2017-01-15T00:02:24.766Z,0
2017-01-15T00:03:24.742Z,0
2017-01-15T00:04:24.711Z,0
2017-01-15T00:05:24.670Z,0
2017-01-15T00:06:24.650Z,0
2017-01-15T00:07:24.616Z,0
2017-01-15T00:08:24.595Z,0
2017-01-15T00:09:24.555Z,0
2017-01-15T00:10:24.527Z,0
2017-01-15T00:11:24.500Z,0
2017-01-15T00:12:24.472Z,0
2017-01-15T00:13:24.447Z,0
2017-01-15T00:14:24.414Z,0
2017-01-15T00:15:24.382Z,0
2017-01-15T00:16:24.348Z,0
2017-01-15T00:17:24.318Z,0
2017-01-15T00:18:24.291Z,0
2017-01-15T00:19:24.256Z,0
2017-01-15T00:20:24.238Z,0
2017-01-15T00:21:24.195Z,0
2017-01-15T00:22:24.173Z,0
2017-01-15T00:23:24.135Z,0
2017-01-15T00:24:24.107Z,0
2017-01-15T00:25:24.086Z,0
2017-01-15T00:26:24.044Z,0
2017-01-15T00:27:24.022Z,0
2017-01-15T00:28:23.992Z,0
2017-01-15T00:29:23.955Z,0
2017-01-15T00:30:23.918Z,0
2017-01-15T00:31:23.879Z,0
2017-01-15T00:32:23.864Z,0
2017-01-15T00:33:23.843Z,0
2017-01-15T00:34:23.810Z,0
2017-01-15T00:35:23.776Z,0
2017-01-15T00:36:23.748Z,0
2017-01-15T00:37:23.704Z,0
2017-01-15T00:38:23.686Z,0
2017-01-15T00:39:23.659Z,0
2017-01-15T00:40:23.615Z,0
2017-01-15T00:41:23.599Z,0
2017-01-15T00:42:23.557Z,0
2017-01-15T00:43:23.525Z,0
2017-01-15T00:44:23.497Z,0
2017-01-15T00:45:23.454Z,0
2017-01-15T00:46:23.430Z,0
2017-01-15T00:47:23.393Z,0
2017-01-15T00:48:23.384Z,0
2017-01-15T00:49:23.348Z,0
2017-01-15T00:50:23.322Z,0
2017-01-15T00:51:23.291Z,0
2017-01-15T00:52:23.251Z,0
2017-01-15T00:53:23.244Z,0
2017-01-15T00:54:23.188Z,0
2017-01-15T00:55:23.148Z,0
2017-01-15T00:56:23.127Z,0
2017-01-15T00:57:23.093Z,0
2017-01-15T00:58:23.063Z,0
2017-01-15T00:59:23.028Z,0
2017-01-15T01:00:23.005Z,0
2017-01-15T01:01:22.979Z,0
2017-01-15T01:02:22.930Z,0
2017-01-15T01:03:23.289Z,0
2017-01-15T01:04:22.887Z,0
2017-01-15T01:05:22.862Z,0
2017-01-15T01:06:22.838Z,0
2017-01-15T01:07:22.792Z,0
2017-01-15T01:08:22.758Z,0
2017-01-15T01:09:22.727Z,0
2017-01-15T01:10:22.685Z,0
2017-01-15T01:11:22.673Z,0
2017-01-15T01:12:22.635Z,0
2017-01-15T01:13:22.611Z,0
2017-01-15T01:14:22.575Z,0
2017-01-15T01:15:22.555Z,0
2017-01-15T01:16:22.514Z,0
2017-01-15T01:17:22.484Z,0
2017-01-15T01:18:22.487Z,0
2017-01-15T01:19:22.434Z,0
2017-01-15T01:20:22.408Z,0
2017-01-15T01:21:22.363Z,0
2017-01-15T01:22:22.333Z,0
2017-01-15T01:23:22.293Z,0
2017-01-15T01:24:22.258Z,0
2017-01-15T01:25:22.230Z,0
2017-01-15T01:26:22.204Z,0
2017-01-15T01:27:22.220Z,0
2017-01-15T01:28:22.157Z,0
2017-01-15T01:29:22.125Z,0
2017-01-15T01:30:22.091Z,0
2017-01-15T01:31:22.051Z,0
2017-01-15T01:32:22.029Z,0
2017-01-15T01:33:21.990Z,0
2017-01-15T01:34:21.973Z,0
2017-01-15T01:35:21.946Z,0
2017-01-15T01:36:21.927Z,0
2017-01-15T01:37:21.872Z,0
2017-01-15T01:38:21.883Z,0
2017-01-15T01:39:21.813Z,0
2017-01-15T01:40:21.787Z,0
2017-01-15T01:41:21.753Z,0
2017-01-15T01:42:21.722Z,0
2017-01-15T01:43:21.694Z,0
2017-01-15T01:44:21.669Z,0
2017-01-15T01:45:21.627Z,0
2017-01-15T01:46:21.602Z,0
2017-01-15T01:47:21.572Z,0
2017-01-15T01:48:21.549Z,0
2017-01-15T01:49:21.505Z,0
2017-01-15T01:50:21.476Z,0
2017-01-15T01:51:21.456Z,0
2017-01-15T01:52:21.414Z,0
2017-01-15T01:53:21.382Z,0
2017-01-15T01:54:21.357Z,0
2017-01-15T01:55:21.325Z,0
2017-01-15T01:56:21.292Z,0
2017-01-15T01:57:21.266Z,0
2017-01-15T01:58:21.233Z,0
2017-01-15T01:59:21.206Z,0
2017-01-15T02:00:21.174Z,0
2017-01-15T02:01:21.147Z,0
2017-01-15T02:02:21.104Z,0
2017-01-15T02:03:21.071Z,0
2017-01-15T02:04:21.046Z,0
2017-01-15T02:05:21.012Z,0
2017-01-15T02:06:20.990Z,0
2017-01-15T02:07:20.970Z,0
2017-01-15T02:08:21.310Z,0
2017-01-15T02:09:20.896Z,0
2017-01-15T02:10:20.865Z,0
2017-01-15T02:11:20.835Z,0
2017-01-15T02:12:20.799Z,0
2017-01-15T02:13:20.780Z,0
2017-01-15T02:14:20.748Z,0
2017-01-15T02:15:20.711Z,0
2017-01-15T02:16:20.680Z,0
2017-01-15T02:17:20.646Z,0
2017-01-15T02:18:21.014Z,0
2017-01-15T02:19:20.583Z,0
2017-01-15T02:20:20.571Z,0
2017-01-15T02:21:20.552Z,0
2017-01-15T02:22:20.490Z,0
2017-01-15T02:23:20.464Z,0
2017-01-15T02:24:20.438Z,0
2017-01-15T02:25:20.414Z,0
2017-01-15T02:26:20.373Z,0
2017-01-15T02:27:20.352Z,0
2017-01-15T02:28:20.313Z,0
2017-01-15T02:29:20.275Z,0
2017-01-15T02:30:20.253Z,0
2017-01-15T02:31:20.214Z,0
2017-01-15T02:32:20.205Z,0
2017-01-15T02:33:20.159Z,0
2017-01-15T02:34:20.127Z,0
2017-01-15T02:35:20.106Z,0
2017-01-15T02:36:20.099Z,0
2017-01-15T02:37:20.039Z,0
2017-01-15T02:38:20.013Z,0
2017-01-15T02:39:19.987Z,0
2017-01-15T02:40:19.949Z,0
2017-01-15T02:41:19.926Z,0
2017-01-15T02:42:19.897Z,0
2017-01-15T02:43:19.863Z,0
2017-01-15T02:44:19.849Z,0
2017-01-15T02:45:19.801Z,0
2017-01-15T02:46:19.763Z,0
2017-01-15T02:47:19.735Z,0
2017-01-15T02:48:19.707Z,0
2017-01-15T02:49:19.693Z,0
2017-01-15T02:50:19.669Z,0
2017-01-15T02:51:19.623Z,0
2017-01-15T02:52:19.817Z,0
2017-01-15T02:53:19.616Z,0
2017-01-15T02:54:19.538Z,0
2017-01-15T02:55:19.506Z,0
2017-01-15T02:56:19.485Z,0
2017-01-15T02:57:19.446Z,0
2017-01-15T02:58:19.412Z,0
2017-01-15T02:59:19.387Z,0
2017-01-15T03:00:19.381Z,0
2017-01-15T03:01:19.318Z,0
2017-01-15T03:02:19.306Z,0
2017-01-15T03:03:19.271Z,0
2017-01-15T03:04:19.240Z,0
2017-01-15T03:05:19.199Z,0
2017-01-15T03:06:19.178Z,0
2017-01-15T03:07:19.131Z,0
2017-01-15T03:08:19.112Z,0
2017-01-15T03:09:19.080Z,0
2017-01-15T03:10:19.043Z,0
2017-01-15T03:11:19.022Z,0
2017-01-15T03:12:18.992Z,0
2017-01-15T03:13:18.966Z,0
2017-01-15T03:14:18.928Z,0
2017-01-15T03:15:18.897Z,0
2017-01-15T03:16:18.868Z,0
2017-01-15T03:17:18.848Z,0
2017-01-15T03:18:18.814Z,0
2017-01-15T03:19:18.785Z,0
2017-01-15T03:20:18.747Z,0
2017-01-15T03:21:18.720Z,0
2017-01-15T03:22:18.687Z,0
2017-01-15T03:23:18.666Z,0
2017-01-15T03:24:18.631Z,0
2017-01-15T03:25:18.597Z,0
2017-01-15T03:26:18.572Z,0
2017-01-15T03:27:18.543Z,0
2017-01-15T03:28:18.506Z,0
2017-01-15T03:29:18.487Z,0
2017-01-15T03:30:18.451Z,0
2017-01-15T03:31:18.419Z,0
2017-01-15T03:32:18.385Z,0
2017-01-15T03:33:18.349Z,0
2017-01-15T03:34:18.319Z,0
2017-01-15T03:35:18.297Z,0
2017-01-15T03:36:18.273Z,0
2017-01-15T03:37:18.230Z,0
2017-01-15T03:38:18.206Z,0
2017-01-15T03:39:18.170Z,0
2017-01-15T03:40:18.146Z,0
2017-01-15T03:41:18.118Z,0
2017-01-15T03:42:18.098Z,0
2017-01-15T03:43:18.057Z,0
2017-01-15T03:44:18.022Z,0
2017-01-15T03:45:17.998Z,0
2017-01-15T03:46:17.964Z,0
2017-01-15T03:47:17.925Z,0
2017-01-15T03:48:17.906Z,0
2017-01-15T03:49:17.875Z,0
2017-01-15T03:50:17.839Z,0
2017-01-15T03:51:17.798Z,0
2017-01-15T03:52:17.785Z,0
2017-01-15T03:53:17.751Z,0
2017-01-15T03:54:17.725Z,0
2017-01-15T03:55:17.682Z,0
2017-01-15T03:56:17.664Z,0
2017-01-15T03:57:17.637Z,0
2017-01-15T03:58:17.590Z,0
2017-01-15T03:59:17.571Z,0
2017-01-15T04:00:17.535Z,0
2017-01-15T04:01:17.500Z,0
2017-01-15T04:02:17.468Z,0
2017-01-15T04:03:17.445Z,0
2017-01-15T04:04:17.415Z,0
2017-01-15T04:05:17.378Z,0
2017-01-15T04:06:17.358Z,0
2017-01-15T04:07:17.316Z,0
2017-01-15T04:08:17.286Z,0
2017-01-15T04:09:17.268Z,0
2017-01-15T04:10:17.235Z,0
2017-01-15T04:11:17.191Z,0
2017-01-15T04:12:17.166Z,0
2017-01-15T04:13:17.140Z,0
2017-01-15T04:14:17.111Z,0
2017-01-15T04:15:17.071Z,0
2017-01-15T04:16:17.035Z,0
2017-01-15T04:17:17.019Z,0
2017-01-15T04:18:16.986Z,0
2017-01-15T04:19:16.957Z,0
2017-01-15T04:20:16.914Z,0
2017-01-15T04:21:16.899Z,0
2017-01-15T04:22:16.858Z,0
2017-01-15T04:23:16.833Z,0
2017-01-15T04:24:16.785Z,0
2017-01-15T04:25:16.777Z,0
2017-01-15T04:26:16.738Z,0
2017-01-15T04:27:16.690Z,0
2017-01-15T04:28:16.672Z,0
2017-01-15T04:29:16.654Z,0
2017-01-15T04:30:16.622Z,0
2017-01-15T04:31:16.581Z,0
2017-01-15T04:32:16.547Z,0
2017-01-15T04:33:16.506Z,0
2017-01-15T04:34:16.484Z,0
2017-01-15T04:35:16.457Z,0
2017-01-15T04:36:16.435Z,0
2017-01-15T04:37:16.421Z,0
2017-01-15T04:38:16.360Z,0
2017-01-15T04:39:16.341Z,0
2017-01-15T04:40:16.292Z,0
2017-01-15T04:41:16.267Z,0
2017-01-15T04:42:16.239Z,0
2017-01-15T04:43:16.200Z,0
2017-01-15T04:44:16.164Z,0
2017-01-15T04:45:16.142Z,0
2017-01-15T04:46:16.109Z,0
2017-01-15T04:47:16.087Z,0
2017-01-15T04:48:16.909Z,0
2017-01-15T04:49:16.020Z,0
2017-01-15T04:50:15.983Z,0
2017-01-15T04:51:15.956Z,0
2017-01-15T04:52:15.931Z,0
2017-01-15T04:53:15.917Z,0
2017-01-15T04:54:15.862Z,0
2017-01-15T04:55:15.836Z,0
2017-01-15T04:56:15.795Z,0
2017-01-15T04:57:15.783Z,0
2017-01-15T04:58:15.735Z,0
2017-01-15T04:59:15.712Z,0
2017-01-15T05:00:15.667Z,0
2017-01-15T05:01:15.659Z,0
2017-01-15T05:02:15.605Z,0
2017-01-15T05:03:15.574Z,0
2017-01-15T05:04:15.544Z,0
2017-01-15T05:05:15.530Z,0
2017-01-15T05:06:15.494Z,0
2017-01-15T05:07:15.450Z,0
2017-01-15T05:08:15.420Z,0
2017-01-15T05:09:15.392Z,0
2017-01-15T05:10:15.349Z,0
2017-01-15T05:11:15.334Z,0
2017-01-15T05:12:15.299Z,0
2017-01-15T05:13:15.265Z,0
2017-01-15T05:14:15.268Z,0
2017-01-15T05:15:15.207Z,0
2017-01-15T05:16:15.170Z,0
2017-01-15T05:17:15.148Z,0
2017-01-15T05:18:15.111Z,0
2017-01-15T05:19:15.078Z,0
2017-01-15T05:20:15.053Z,0
2017-01-15T05:21:15.022Z,0
2017-01-15T05:22:14.993Z,0
2017-01-15T05:23:14.964Z,0
2017-01-15T05:24:14.928Z,0
2017-01-15T05:25:14.893Z,0
2017-01-15T05:26:14.870Z,0
2017-01-15T05:27:14.833Z,0
2017-01-15T05:28:14.808Z,0
2017-01-15T05:29:14.780Z,0
2017-01-15T05:30:14.742Z,0
2017-01-15T05:31:14.720Z,0
2017-01-15T05:32:14.671Z,0
2017-01-15T05:33:14.648Z,0
2017-01-15T05:34:14.612Z,0
2017-01-15T05:35:14.589Z,0
2017-01-15T05:36:14.565Z,0
2017-01-15T05:37:14.507Z,0
2017-01-15T05:38:14.496Z,0
2017-01-15T05:39:14.466Z,0
2017-01-15T05:40:14.428Z,0
2017-01-15T05:41:14.403Z,0
2017-01-15T05:42:14.371Z,0
2017-01-15T05:43:14.336Z,0
2017-01-15T05:44:14.306Z,0
2017-01-15T05:45:14.271Z,0
2017-01-15T05:46:14.236Z,0
2017-01-15T05:47:14.196Z,0
2017-01-15T05:48:14.173Z,0
2017-01-15T05:49:14.138Z,0
2017-01-15T05:50:14.123Z,0
2017-01-15T05:51:14.084Z,0
2017-01-15T05:52:14.044Z,0
2017-01-15T05:53:14.218Z,0
2017-01-15T05:54:13.991Z,0
2017-01-15T05:55:13.965Z,0
2017-01-15T05:56:13.933Z,0
2017-01-15T05:57:13.883Z,0
2017-01-15T05:58:13.850Z,0
2017-01-15T05:59:13.830Z,0
2017-01-15T06:00:13.809Z,0
2017-01-15T06:01:13.778Z,0
2017-01-15T06:02:13.744Z,0
2017-01-15T06:03:13.719Z,0
2017-01-15T06:04:13.680Z,0
2017-01-15T06:05:13.650Z,0
2017-01-15T06:06:13.614Z,0
2017-01-15T06:07:13.573Z,0
2017-01-15T06:08:13.589Z,0
2017-01-15T06:09:13.521Z,0
2017-01-15T06:10:13.489Z,0
2017-01-15T06:11:13.480Z,0
2017-01-15T06:12:13.467Z,0
2017-01-15T06:13:13.396Z,0
2017-01-15T06:14:13.370Z,0
2017-01-15T06:15:13.340Z,0
2017-01-15T06:16:13.305Z,0
2017-01-15T06:17:28.184Z,0
2017-01-15T06:18:13.251Z,0
2017-01-15T06:19:13.215Z,0
2017-01-15T06:20:13.186Z,0
2017-01-15T06:21:13.163Z,0
2017-01-15T06:22:13.122Z,4
2017-01-15T06:23:13.095Z,4
2017-01-15T06:24:13.058Z,0
2017-01-15T06:25:13.034Z,4
2017-01-15T06:26:13.000Z,4
2017-01-15T06:27:12.974Z,4
2017-01-15T06:28:12.939Z,8
2017-01-15T06:29:12.908Z,4
2017-01-15T06:30:12.889Z,4
2017-01-15T06:31:12.858Z,8
2017-01-15T06:32:12.819Z,8
2017-01-15T06:33:12.798Z,12
2017-01-15T06:34:12.758Z,12
2017-01-15T06:35:12.738Z,16
2017-01-15T06:36:12.692Z,20
2017-01-15T06:37:12.677Z,24
2017-01-15T06:38:12.637Z,28
2017-01-15T06:39:12.606Z,32
2017-01-15T06:40:12.770Z,36
2017-01-15T06:41:12.943Z,44
2017-01-15T06:42:12.705Z,56
2017-01-15T06:43:12.477Z,60
2017-01-15T06:44:12.451Z,76
2017-01-15T06:45:12.429Z,84
2017-01-15T06:46:12.394Z,96
2017-01-15T06:47:12.366Z,108
2017-01-15T06:48:12.332Z,124
2017-01-15T06:49:12.306Z,144
2017-01-15T06:50:12.271Z,160
2017-01-15T06:51:12.245Z,180
2017-01-15T06:52:12.214Z,200
2017-01-15T06:53:12.188Z,224
2017-01-15T06:54:12.153Z,244
2017-01-15T06:55:12.123Z,264
2017-01-15T06:56:12.089Z,292
2017-01-15T06:57:12.060Z,328
2017-01-15T06:58:12.030Z,360
2017-01-15T06:59:12.006Z,380
2017-01-15T07:00:11.961Z,412
2017-01-15T07:01:12.137Z,448
2017-01-15T07:02:12.108Z,492
2017-01-15T07:03:11.878Z,548
2017-01-15T07:04:11.856Z,612
2017-01-15T07:05:11.827Z,672
2017-01-15T07:06:12.005Z,712
2017-01-15T07:07:11.773Z,752
2017-01-15T07:08:11.738Z,808
2017-01-15T07:09:11.708Z,868
2017-01-15T07:10:11.685Z,968
2017-01-15T07:11:11.629Z,1084
2017-01-15T07:12:11.602Z,1148
2017-01-15T07:13:11.579Z,1196
2017-01-15T07:14:11.569Z,1284
2017-01-15T07:15:11.522Z,1416
2017-01-15T07:16:11.487Z,1640
2017-01-15T07:17:11.455Z,1812
2017-01-15T07:18:11.436Z,1748
2017-01-15T07:19:11.399Z,1696
2017-01-15T07:20:11.374Z,1756
2017-01-15T07:21:11.334Z,2008
2017-01-15T07:22:11.307Z,2244
2017-01-15T07:23:11.282Z,2216
2017-01-15T07:24:11.252Z,2292
2017-01-15T07:25:11.201Z,2444
2017-01-15T07:26:11.173Z,2584
2017-01-15T07:27:11.155Z,2680
2017-01-15T07:28:11.119Z,3024
2017-01-15T07:29:11.091Z,2864
2017-01-15T07:30:11.262Z,2860
2017-01-15T07:31:11.236Z,2976
2017-01-15T07:32:10.998Z,3148
2017-01-15T07:33:10.988Z,3412
2017-01-15T07:34:10.949Z,3380
2017-01-15T07:35:10.910Z,3324
2017-01-15T07:36:10.889Z,3404
2017-01-15T07:37:10.851Z,3312
2017-01-15T07:38:10.830Z,3288
2017-01-15T07:39:10.796Z,3292
2017-01-15T07:40:10.757Z,3324
2017-01-15T07:41:10.732Z,3620
2017-01-15T07:42:10.709Z,3800
2017-01-15T07:43:10.659Z,4020
2017-01-15T07:44:10.661Z,3976
2017-01-15T07:45:10.611Z,3984
2017-01-15T07:46:10.605Z,4196
2017-01-15T07:47:10.556Z,4324
2017-01-15T07:48:10.525Z,4396
2017-01-15T07:49:10.490Z,4676
2017-01-15T07:50:10.849Z,4996
2017-01-15T07:51:10.446Z,5176
2017-01-15T07:52:10.398Z,5448
2017-01-15T07:53:10.388Z,5444
2017-01-15T07:54:10.341Z,5596
2017-01-15T07:55:10.523Z,5724
2017-01-15T07:56:10.286Z,5468
2017-01-15T07:57:10.249Z,5508
2017-01-15T07:58:10.231Z,5636
2017-01-15T07:59:10.199Z,6252
2017-01-15T08:00:10.172Z,6508
2017-01-15T08:01:10.141Z,6704
2017-01-15T08:02:10.111Z,6756
2017-01-15T08:03:10.088Z,7136
2017-01-15T08:04:10.063Z,7924
2017-01-15T08:05:10.016Z,8716
2017-01-15T08:06:09.989Z,8840
2017-01-15T08:07:09.962Z,8604
2017-01-15T08:08:09.928Z,8500
2017-01-15T08:09:09.908Z,8192
2017-01-15T08:10:09.875Z,8408
2017-01-15T08:11:09.826Z,9592
2017-01-15T08:12:09.828Z,10416
2017-01-15T08:13:09.773Z,10112
2017-01-15T08:14:09.751Z,9368
2017-01-15T08:15:09.725Z,8532
2017-01-15T08:16:09.679Z,8048
2017-01-15T08:17:09.647Z,8452
2017-01-15T08:18:09.637Z,10896
2017-01-15T08:19:09.807Z,12800
2017-01-15T08:20:09.955Z,12232
2017-01-15T08:21:09.528Z,10928
2017-01-15T08:22:09.503Z,9740
2017-01-15T08:23:09.500Z,9676
2017-01-15T08:24:09.440Z,10132
2017-01-15T08:25:09.419Z,10428
2017-01-15T08:26:09.388Z,10604
2017-01-15T08:27:09.361Z,11432
2017-01-15T08:28:09.349Z,13592
2017-01-15T08:29:09.294Z,14652
2017-01-15T08:30:09.257Z,13832
2017-01-15T08:31:09.225Z,13140
2017-01-15T08:32:09.201Z,14200
2017-01-15T08:33:09.163Z,15624
2017-01-15T08:34:09.153Z,16992
2017-01-15T08:35:09.124Z,16012
2017-01-15T08:36:09.089Z,17920
2017-01-15T08:37:09.051Z,16992
2017-01-15T08:38:09.028Z,19008
2017-01-15T08:39:08.996Z,18688
2017-01-15T08:40:08.981Z,18240
2017-01-15T08:41:08.928Z,16328
2017-01-15T08:42:08.912Z,14860
2017-01-15T08:43:08.873Z,13980
2017-01-15T08:44:08.849Z,12968
2017-01-15T08:45:08.813Z,12836
2017-01-15T08:46:08.786Z,12804
2017-01-15T08:47:08.793Z,13356
2017-01-15T08:48:08.730Z,14132
2017-01-15T08:49:08.704Z,14352
2017-01-15T08:50:08.664Z,14620
2017-01-15T08:51:08.640Z,15476
2017-01-15T08:52:08.598Z,17216
2017-01-15T08:53:08.579Z,19584
2017-01-15T08:54:08.550Z,23712
2017-01-15T08:55:08.525Z,28032
2017-01-15T08:56:08.493Z,36800
2017-01-15T08:57:08.461Z,34016
2017-01-15T08:58:08.430Z,26816
2017-01-15T08:59:08.416Z,27040
2017-01-15T09:00:08.366Z,24224
2017-01-15T09:01:08.349Z,21248
2017-01-15T09:02:08.356Z,20480
2017-01-15T09:03:08.280Z,20032
2017-01-15T09:04:08.255Z,19200
2017-01-15T09:05:08.233Z,18944
2017-01-15T09:06:08.195Z,18816
2017-01-15T09:07:08.179Z,18144
2017-01-15T09:08:08.139Z,16636
2017-01-15T09:09:08.126Z,15936
2017-01-15T09:10:08.089Z,15604
2017-01-15T09:11:08.088Z,16748
2017-01-15T09:12:08.065Z,18880
2017-01-15T09:13:07.998Z,19616
2017-01-15T09:14:07.971Z,19936
2017-01-15T09:15:07.944Z,19616
2017-01-15T09:16:07.908Z,19744
2017-01-15T09:17:07.888Z,21824
2017-01-15T09:18:07.855Z,23552
2017-01-15T09:19:07.839Z,23232
2017-01-15T09:20:07.794Z,24384
2017-01-15T09:21:07.776Z,26176
2017-01-15T09:22:07.729Z,27968
2017-01-15T09:23:07.712Z,31744
2017-01-15T09:24:07.691Z,37664
2017-01-15T09:25:07.687Z,36448
2017-01-15T09:26:07.630Z,34080
2017-01-15T09:27:07.606Z,30656
2017-01-15T09:28:07.572Z,29888
2017-01-15T09:29:07.545Z,30112
2017-01-15T09:30:07.906Z,28896
2017-01-15T09:31:07.472Z,26720
2017-01-15T09:32:07.460Z,25440
2017-01-15T09:33:07.424Z,24448
2017-01-15T09:34:07.405Z,24768
2017-01-15T09:35:07.368Z,24672
2017-01-15T09:36:07.342Z,23552
2017-01-15T09:37:07.305Z,23488
2017-01-15T09:38:07.273Z,24864
2017-01-15T09:39:07.253Z,24960
2017-01-15T09:40:07.231Z,24576
2017-01-15T09:41:07.200Z,24064
2017-01-15T09:42:07.157Z,22688
2017-01-15T09:43:07.164Z,21536
2017-01-15T09:44:07.503Z,21920
2017-01-15T09:45:07.078Z,22176
2017-01-15T09:46:07.055Z,23488
2017-01-15T09:47:07.024Z,23616
2017-01-15T09:48:06.995Z,23552
2017-01-15T09:49:06.961Z,25632
2017-01-15T09:50:06.932Z,27584
2017-01-15T09:51:06.897Z,30528
2017-01-15T09:52:06.886Z,32928
2017-01-15T09:53:06.894Z,37280
2017-01-15T09:54:06.813Z,33312
2017-01-15T09:55:06.785Z,27872
2017-01-15T09:56:06.766Z,25312
2017-01-15T09:57:06.732Z,25440
2017-01-15T09:58:06.715Z,26080
2017-01-15T09:59:06.667Z,24544
2017-01-15T10:00:06.644Z,24480
2017-01-15T10:01:06.621Z,25696
2017-01-15T10:02:06.576Z,27552
2017-01-15T10:03:06.556Z,30208
2017-01-15T10:04:06.525Z,32768
2017-01-15T10:05:06.491Z,33248
2017-01-15T10:06:06.466Z,32224
2017-01-15T10:07:06.431Z,31040
2017-01-15T10:08:06.404Z,30400
2017-01-15T10:09:06.392Z,29920
2017-01-15T10:10:06.361Z,29408
2017-01-15T10:11:06.326Z,30912
2017-01-15T10:12:06.292Z,31040
2017-01-15T10:13:06.662Z,29120
2017-01-15T10:14:06.245Z,37216
2017-01-15T10:15:06.210Z,40768
2017-01-15T10:16:06.176Z,39040
2017-01-15T10:17:06.153Z,35840
2017-01-15T10:18:06.120Z,35488
2017-01-15T10:19:06.087Z,33056
2017-01-15T10:20:06.064Z,32448
2017-01-15T10:21:06.042Z,36096
2017-01-15T10:22:06.002Z,37568
2017-01-15T10:23:05.962Z,37152
2017-01-15T10:24:05.940Z,34112
2017-01-15T10:25:05.908Z,33888
2017-01-15T10:26:05.879Z,33824
2017-01-15T10:27:05.848Z,35872
2017-01-15T10:28:05.824Z,36288
2017-01-15T10:29:05.806Z,34112
2017-01-15T10:30:05.764Z,32512
2017-01-15T10:31:05.728Z,32448
2017-01-15T10:32:05.701Z,35040
2017-01-15T10:33:05.669Z,38464
2017-01-15T10:34:05.660Z,38272
2017-01-15T10:35:05.629Z,35584
2017-01-15T10:36:05.578Z,32736
2017-01-15T10:37:05.556Z,31552
2017-01-15T10:38:05.922Z,30336
2017-01-15T10:39:05.501Z,30240
2017-01-15T10:40:05.864Z,31040
2017-01-15T10:41:05.447Z,32256
2017-01-15T10:42:05.435Z,31296
2017-01-15T10:43:05.419Z,30752
2017-01-15T10:44:05.376Z,32032
2017-01-15T10:45:05.327Z,32256
2017-01-15T10:46:05.295Z,30784
2017-01-15T10:47:05.259Z,28672
2017-01-15T10:48:05.246Z,26912
2017-01-15T10:49:05.215Z,25920
2017-01-15T10:50:05.185Z,24384
2017-01-15T10:51:05.190Z,22624
2017-01-15T10:52:05.132Z,22336
2017-01-15T10:53:05.102Z,23776
2017-01-15T10:54:05.068Z,26752
2017-01-15T10:55:05.033Z,28896
2017-01-15T10:56:05.005Z,28608
2017-01-15T10:57:04.976Z,27520
2017-01-15T10:58:04.953Z,27904
2017-01-15T10:59:04.936Z,26944
2017-01-15T11:00:04.887Z,26496
2017-01-15T11:01:04.872Z,30528
2017-01-15T11:02:04.840Z,30048
2017-01-15T11:03:04.818Z,30464
2017-01-15T11:04:04.773Z,30784
2017-01-15T11:05:04.740Z,28640
2017-01-15T11:06:04.719Z,26688
2017-01-15T11:07:04.696Z,28672
2017-01-15T11:08:04.662Z,29824
2017-01-15T11:09:04.632Z,28704
2017-01-15T11:10:04.605Z,26784
2017-01-15T11:11:04.573Z,24960
2017-01-15T11:12:04.927Z,27040
2017-01-15T11:13:04.523Z,27584
2017-01-15T11:14:04.484Z,28224
2017-01-15T11:15:04.461Z,28288
2017-01-15T11:16:04.426Z,27328
2017-01-15T11:17:04.416Z,28192
2017-01-15T11:18:04.377Z,28864
2017-01-15T11:19:04.337Z,30944
2017-01-15T11:20:04.311Z,32864
2017-01-15T11:21:04.275Z,27424
2017-01-15T11:22:04.265Z,25664
2017-01-15T11:23:04.236Z,27552
2017-01-15T11:24:04.190Z,26752
2017-01-15T11:25:04.162Z,26528
2017-01-15T11:26:04.139Z,26752
2017-01-15T11:27:04.096Z,28128
2017-01-15T11:28:04.079Z,29728
2017-01-15T11:29:04.051Z,25440
2017-01-15T11:30:04.016Z,21536
2017-01-15T11:31:03.982Z,22432
2017-01-15T11:32:03.965Z,24032
2017-01-15T11:33:03.929Z,25664
2017-01-15T11:34:03.900Z,24704
2017-01-15T11:35:03.906Z,25600
2017-01-15T11:36:04.239Z,24448
2017-01-15T11:37:03.826Z,23776
2017-01-15T11:38:03.791Z,22720
2017-01-15T11:39:03.754Z,23776
2017-01-15T11:40:03.734Z,25792
2017-01-15T11:41:03.704Z,23904
2017-01-15T11:42:03.656Z,24096
2017-01-15T11:43:03.641Z,21216
2017-01-15T11:44:03.612Z,23168
2017-01-15T11:45:03.578Z,26656
2017-01-15T11:46:03.561Z,27872
2017-01-15T11:47:03.513Z,26112
2017-01-15T11:48:03.499Z,24736
2017-01-15T11:49:03.456Z,25184
2017-01-15T11:50:03.438Z,26208
2017-01-15T11:51:03.397Z,25568
2017-01-15T11:52:03.374Z,24480
2017-01-15T11:53:03.340Z,23392
2017-01-15T11:54:03.298Z,25792
2017-01-15T11:55:03.285Z,27136
2017-01-15T11:56:03.640Z,27104
2017-01-15T11:57:03.225Z,27008
2017-01-15T11:58:03.194Z,26752
2017-01-15T11:59:03.178Z,30720
2017-01-15T12:00:03.124Z,30368
2017-01-15T12:01:03.112Z,26816
2017-01-15T12:02:03.072Z,24160
2017-01-15T12:03:03.057Z,26976
2017-01-15T12:04:03.016Z,28608
2017-01-15T12:05:02.978Z,26784
2017-01-15T12:06:02.956Z,24320
2017-01-15T12:07:02.930Z,22880
2017-01-15T12:08:02.886Z,24960
2017-01-15T12:09:02.865Z,27840
2017-01-15T12:10:02.831Z,28288
2017-01-15T12:11:02.803Z,27392
2017-01-15T12:12:02.768Z,23712
2017-01-15T12:13:02.747Z,22624
2017-01-15T12:14:02.717Z,23136
2017-01-15T12:15:02.696Z,23040
2017-01-15T12:16:02.648Z,23488
2017-01-15T12:17:02.623Z,23968
2017-01-15T12:18:02.607Z,23616
2017-01-15T12:19:02.554Z,23648
2017-01-15T12:20:02.521Z,28256
2017-01-15T12:21:02.499Z,29760
2017-01-15T12:22:02.470Z,26784
2017-01-15T12:23:02.439Z,25696
2017-01-15T12:24:02.401Z,22144
2017-01-15T12:25:02.385Z,17836
2017-01-15T12:26:02.740Z,18336
2017-01-15T12:27:02.312Z,34656
2017-01-15T12:28:02.297Z,29024
2017-01-15T12:29:02.271Z,25984
2017-01-15T12:30:02.236Z,22176
2017-01-15T12:31:02.215Z,25248
2017-01-15T12:32:02.173Z,23872
2017-01-15T12:33:02.151Z,22272
2017-01-15T12:34:02.120Z,22336
2017-01-15T12:35:02.092Z,23936
2017-01-15T12:36:02.064Z,29344
2017-01-15T12:37:02.021Z,27200
2017-01-15T12:38:02.004Z,30784
2017-01-15T12:39:01.973Z,31392
2017-01-15T12:40:01.944Z,34688
2017-01-15T12:41:01.906Z,29792
2017-01-15T12:42:01.869Z,25568
2017-01-15T12:43:01.856Z,23456
2017-01-15T12:44:01.817Z,23328
2017-01-15T12:45:01.784Z,23264
2017-01-15T12:46:01.767Z,22528
2017-01-15T12:47:01.726Z,23520
2017-01-15T12:48:01.696Z,25824
2017-01-15T12:49:01.677Z,25984
2017-01-15T12:50:01.628Z,25728
2017-01-15T12:51:01.605Z,23712
2017-01-15T12:52:01.582Z,22720
2017-01-15T12:53:01.563Z,20288
2017-01-15T12:54:01.518Z,16512
2017-01-15T12:55:01.484Z,15316
2017-01-15T12:56:01.462Z,21824
2017-01-15T12:57:01.426Z,21952
2017-01-15T12:58:01.390Z,24544
2017-01-15T12:59:01.362Z,27712
2017-01-15T13:00:01.341Z,22944
2017-01-15T13:01:01.309Z,20480
2017-01-15T13:02:01.269Z,22752
2017-01-15T13:03:01.239Z,21568
2017-01-15T13:04:01.215Z,20800
2017-01-15T13:05:01.181Z,22464
2017-01-15T13:06:01.171Z,25504
2017-01-15T13:07:01.137Z,24960
2017-01-15T13:08:01.101Z,25504
2017-01-15T13:09:01.070Z,24512
2017-01-15T13:10:01.039Z,17276
2017-01-15T13:11:01.015Z,14576
2017-01-15T13:12:00.976Z,18016
2017-01-15T13:13:00.946Z,19616
2017-01-15T13:14:00.920Z,20512
2017-01-15T13:15:00.883Z,21600
2017-01-15T13:16:00.862Z,23424
2017-01-15T13:17:00.832Z,26496
2017-01-15T13:18:00.796Z,27648
2017-01-15T13:19:00.765Z,26272
2017-01-15T13:20:00.743Z,24704
2017-01-15T13:21:01.099Z,26272
2017-01-15T13:22:00.684Z,25600
2017-01-15T13:23:00.655Z,25984
2017-01-15T13:24:00.611Z,23776
2017-01-15T13:25:00.601Z,24320
2017-01-15T13:26:00.592Z,23744
2017-01-15T13:27:00.543Z,23456
2017-01-15T13:28:00.494Z,21088
2017-01-15T13:29:00.478Z,21920
2017-01-15T13:30:00.438Z,23296
2017-01-15T13:31:00.420Z,20512
2017-01-15T13:32:00.378Z,16856
2017-01-15T13:33:00.360Z,15984
2017-01-15T13:34:00.324Z,16732
2017-01-15T13:35:00.299Z,18592
2017-01-15T13:36:00.310Z,20768
2017-01-15T13:37:00.226Z,21312
2017-01-15T13:38:00.200Z,20096
2017-01-15T13:39:00.168Z,18144
2017-01-15T13:40:00.144Z,15820
2017-01-15T13:41:00.112Z,16136
2017-01-15T13:42:00.080Z,16840
2017-01-15T13:43:00.063Z,18048
2017-01-15T13:44:00.023Z,18880
2017-01-15T13:44:59.988Z,17392
2017-01-15T13:45:59.973Z,16732
2017-01-15T13:46:59.941Z,16312
2017-01-15T13:47:59.912Z,15688